Time;durP1;ratioP1;P1;durP2;ratioP2;P2;SDS_P1;SDS_P2;PMS_P1;PMS_P2;Temp;Humidity;BMP_temperature;BMP_pressure;BME280_temperature;BME280_humidity;BME280_pressure;Samples;Min_cycle;Max_cycle;Signal;HPM_P1;HPM_P2
2023/06/10 00:02:26;;;;;;;;;;;;;;;20.41;78.39;99982.56;5422403;32;34290;-71
2023/06/10 00:05:31;;;;;;;;;;;;;;;20.75;76.88;99977.84;5426812;32;35471;-71
2023/06/10 00:08:33;;;;;;;;;;;;;;;20.45;77.88;99962.69;5424592;32;35006;-67
2023/06/10 00:11:36;;;;;;;;;;;;;;;20.89;75.88;99973.13;5407958;32;35206;-72
2023/06/10 00:14:38;;;;;;;;;;;;;;;21.38;73.41;99972.25;5411388;32;34849;-68
2023/06/10 00:17:40;;;;;;;;;;;;;;;21.38;72.84;99974.91;5407976;32;35155;-73
2023/06/10 00:20:43;;;;;;;;;;;;;;;21.63;71.08;99974.38;5427824;32;35486;-73
2023/06/10 00:23:44;;;;;;;;;;;;;;;21.30;72.30;99954.25;5422029;32;34724;-67
2023/06/10 00:26:47;;;;;;;;;;;;;;;19.55;81.58;99970.31;5427587;32;34751;-67
2023/06/10 00:29:49;;;;;;;;;;;;;;;19.50;82.65;99969.84;5422001;32;34846;-67
2023/06/10 00:32:50;;;;;;;;;;;;;;;19.59;82.96;99970.94;5421762;32;34950;-74
2023/06/10 00:35:52;;;;;;;;;;;;;;;19.82;81.78;99961.84;5426635;32;34399;-73
2023/06/10 00:38:54;;;;;;;;;;;;;;;19.88;81.15;99968.47;5422578;32;35140;-68
2023/06/10 00:41:56;;;;;;;;;;;;;;;20.07;79.58;99975.78;5425297;32;35631;-71
2023/06/10 00:44:58;;;;;;;;;;;;;;;20.32;77.82;99980.69;5422162;32;35470;-73
2023/06/10 00:48:00;;;;;;;;;;;;;;;19.90;79.80;99970.06;5414388;32;34761;-66
2023/06/10 00:51:03;;;;;;;;;;;;;;;20.37;77.98;99978.50;5413073;32;33828;-67
2023/06/10 00:54:05;;;;;;;;;;;;;;;20.22;79.10;99979.78;5410102;32;34309;-70
2023/06/10 00:57:07;;;;;;;;;;;;;;;20.38;77.15;99980.19;5415568;32;34534;-73
2023/06/10 01:00:10;;;;;;;;;;;;;;;20.02;77.84;99982.34;5411336;32;34456;-68
2023/06/10 01:03:12;;;;;;;;;;;;;;;19.30;82.52;99987.47;5429050;32;34041;-74
2023/06/10 01:06:21;;;;;;;;;;;;;;;19.05;83.56;99982.44;5426433;32;34741;-70
2023/06/10 01:09:24;;;;;;;;;;;;;;;19.81;79.47;99959.31;5414264;32;35258;-67
2023/06/10 01:12:29;;;;;;;;;;;;;;;19.72;81.36;99985.78;5413807;32;35070;-72
2023/06/10 01:15:31;;;;;;;;;;;;;;;20.07;79.23;99979.28;5410141;32;34829;-68
2023/06/10 01:18:33;;;;;;;;;;;;;;;19.88;79.82;99984.47;5417440;32;35218;-71
2023/06/10 01:21:35;;;;;;;;;;;;;;;19.69;79.76;99982.50;5407621;32;35262;-66
2023/06/10 01:24:40;;;;;;;;;;;;;;;19.28;83.28;99994.75;5409076;32;34993;-68
2023/06/10 01:27:42;;;;;;;;;;;;;;;19.73;80.35;99981.28;5412928;32;34487;-67
2023/06/10 01:30:50;;;;;;;;;;;;;;;19.40;81.89;99983.09;5411632;32;35252;-67
2023/06/10 01:33:52;;;;;;;;;;;;;;;18.93;83.94;99979.81;5428931;32;34634;-71
2023/06/10 01:36:54;;;;;;;;;;;;;;;19.26;82.50;99988.69;5426088;32;34877;-71
2023/06/10 01:39:57;;;;;;;;;;;;;;;18.97;83.78;99974.22;5410539;32;35420;-72
2023/06/10 01:42:59;;;;;;;;;;;;;;;19.26;82.39;99978.03;5422297;32;34419;-72
2023/06/10 01:46:01;;;;;;;;;;;;;;;19.33;82.51;99983.72;5418958;32;34886;-67
2023/06/10 01:49:03;;;;;;;;;;;;;;;19.15;83.31;99980.72;5426027;32;34310;-67
2023/06/10 01:52:05;;;;;;;;;;;;;;;19.17;83.40;99976.13;5426098;32;34100;-70
2023/06/10 01:55:07;;;;;;;;;;;;;;;20.25;76.61;99979.53;5429841;32;35323;-71
2023/06/10 01:58:10;;;;;;;;;;;;;;;19.95;78.08;99975.84;5425728;32;34575;-71
2023/06/10 02:01:12;;;;;;;;;;;;;;;20.33;75.88;99979.72;5428479;32;35306;-72
2023/06/10 02:04:14;;;;;;;;;;;;;;;19.11;82.12;99993.44;5427437;32;35459;-67
2023/06/10 02:07:16;;;;;;;;;;;;;;;19.08;83.81;99992.84;5428407;32;35314;-73
2023/06/10 02:10:18;;;;;;;;;;;;;;;18.49;86.09;99987.78;5430789;32;36815;-71
2023/06/10 02:13:20;;;;;;;;;;;;;;;19.62;80.27;99984.00;5425982;32;34339;-72
2023/06/10 02:16:22;;;;;;;;;;;;;;;19.06;82.29;99990.28;5426466;32;34609;-66
2023/06/10 02:19:26;;;;;;;;;;;;;;;19.18;82.08;99985.78;5411223;32;34066;-67
2023/06/10 02:22:28;;;;;;;;;;;;;;;19.15;82.10;99994.03;5416136;32;35412;-66
2023/06/10 02:25:30;;;;;;;;;;;;;;;19.04;83.01;99996.72;5428715;32;34842;-66
2023/06/10 02:28:32;;;;;;;;;;;;;;;19.59;79.64;99979.78;5426018;32;35639;-71
2023/06/10 02:31:35;;;;;;;;;;;;;;;20.10;76.11;99983.53;5426170;32;35176;-69
2023/06/10 02:34:37;;;;;;;;;;;;;;;18.92;82.08;99991.41;5397856;32;35077;-72
2023/06/10 02:37:39;;;;;;;;;;;;;;;18.70;83.07;99991.44;5430165;32;35551;-72
2023/06/10 02:40:42;;;;;;;;;;;;;;;18.93;82.31;99990.47;5422266;32;34296;-72
2023/06/10 02:43:44;;;;;;;;;;;;;;;18.90;82.35;99977.38;5426855;32;35248;-66
2023/06/10 02:46:46;;;;;;;;;;;;;;;18.62;84.11;99992.00;5410879;32;35351;-73
2023/06/10 02:49:48;;;;;;;;;;;;;;;19.06;82.25;99986.78;5427887;32;34678;-68
2023/06/10 02:52:50;;;;;;;;;;;;;;;18.73;83.36;99990.31;5426237;32;34123;-67
2023/06/10 02:55:52;;;;;;;;;;;;;;;19.34;79.83;99988.91;5408734;32;34243;-72
2023/06/10 02:58:54;;;;;;;;;;;;;;;19.19;79.83;99980.38;5414296;32;34230;-73
2023/06/10 03:01:56;;;;;;;;;;;;;;;19.38;80.10;99997.50;5424993;32;34956;-66
2023/06/10 03:04:58;;;;;;;;;;;;;;;19.49;79.35;99984.97;5425916;32;34590;-67
2023/06/10 03:08:00;;;;;;;;;;;;;;;20.12;75.29;99997.56;5421848;32;35656;-68
2023/06/10 03:11:02;;;;;;;;;;;;;;;19.44;78.38;99992.50;5424461;32;34336;-68
2023/06/10 03:14:04;;;;;;;;;;;;;;;19.49;78.37;100005.44;5426422;32;34289;-66
2023/06/10 03:17:08;;;;;;;;;;;;;;;20.33;75.06;99998.41;5424393;32;35071;-71
2023/06/10 03:20:10;;;;;;;;;;;;;;;20.11;75.77;100002.06;5416526;32;35148;-71
2023/06/10 03:23:12;;;;;;;;;;;;;;;19.18;80.54;100007.09;5418816;32;34438;-68
2023/06/10 03:26:15;;;;;;;;;;;;;;;18.72;82.86;100002.78;5427117;32;35017;-71
2023/06/10 03:29:17;;;;;;;;;;;;;;;18.48;86.27;100015.31;5409349;32;34908;-69
2023/06/10 03:32:19;;;;;;;;;;;;;;;19.18;81.34;100007.09;5426449;32;34279;-72
2023/06/10 03:35:22;;;;;;;;;;;;;;;19.60;80.43;100015.28;5412205;32;34522;-72
2023/06/10 03:38:26;;;;;;;;;;;;;;;19.20;80.89;100016.69;5408863;32;34412;-70
2023/06/10 03:41:28;;;;;;;;;;;;;;;19.19;82.36;100024.78;5424273;32;34840;-67
2023/06/10 03:44:30;;;;;;;;;;;;;;;18.81;84.01;100007.41;5422018;32;34607;-69
2023/06/10 03:47:35;;;;;;;;;;;;;;;19.14;83.09;100011.00;5427767;32;34352;-67
2023/06/10 03:50:37;;;;;;;;;;;;;;;19.37;81.31;100006.47;5424511;32;34598;-70
2023/06/10 03:53:39;;;;;;;;;;;;;;;19.56;79.98;100003.13;5412418;32;34559;-68
2023/06/10 03:56:41;;;;;;;;;;;;;;;19.54;79.82;99994.44;5426772;32;35272;-71
2023/06/10 03:59:43;;;;;;;;;;;;;;;19.79;78.17;100007.44;5424687;32;34924;-72
2023/06/10 04:02:45;;;;;;;;;;;;;;;19.72;78.47;100000.94;5428375;32;35433;-67
2023/06/10 04:05:49;;;;;;;;;;;;;;;19.52;79.86;99997.22;5424920;32;34418;-70
2023/06/10 04:08:52;;;;;;;;;;;;;;;20.77;73.76;99991.91;5428459;32;34678;-72
2023/06/10 04:11:54;;;;;;;;;;;;;;;19.97;77.52;100000.56;5414275;32;35309;-71
2023/06/10 04:14:56;;;;;;;;;;;;;;;19.74;77.47;99989.16;5426762;32;35071;-71
2023/06/10 04:17:58;;;;;;;;;;;;;;;20.09;77.12;99997.81;5426029;32;34836;-71
2023/06/10 04:21:00;;;;;;;;;;;;;;;20.14;75.81;100000.94;5409836;32;35331;-72
2023/06/10 04:24:02;;;;;;;;;;;;;;;19.96;77.45;99990.00;5428077;32;34697;-67
2023/06/10 04:27:04;;;;;;;;;;;;;;;19.77;77.73;100006.69;5423519;32;34930;-72
2023/06/10 04:30:06;;;;;;;;;;;;;;;19.72;78.07;100014.25;5429787;32;34760;-71
2023/06/10 04:33:09;;;;;;;;;;;;;;;19.33;79.40;99991.72;5427168;32;34674;-72
2023/06/10 04:36:11;;;;;;;;;;;;;;;19.12;81.43;100016.44;5428355;32;34773;-68
2023/06/10 04:39:13;;;;;;;;;;;;;;;18.86;82.09;100009.69;5427735;32;34926;-67
2023/06/10 04:42:15;;;;;;;;;;;;;;;19.19;81.44;99996.34;5408335;32;34881;-71
2023/06/10 04:45:17;;;;;;;;;;;;;;;19.19;80.90;100009.66;5428859;32;35355;-73
2023/06/10 04:48:19;;;;;;;;;;;;;;;19.30;79.63;99995.44;5425829;32;35099;-67
2023/06/10 04:51:21;;;;;;;;;;;;;;;18.71;83.21;100003.75;5428371;32;34584;-72
2023/06/10 04:54:23;;;;;;;;;;;;;;;19.86;78.65;100005.94;5427197;32;34810;-69
2023/06/10 04:57:25;;;;;;;;;;;;;;;19.46;77.74;100009.22;5429721;32;34330;-68
2023/06/10 05:00:27;;;;;;;;;;;;;;;19.21;79.55;100009.53;5429338;32;35439;-67
2023/06/10 05:03:29;;;;;;;;;;;;;;;19.92;77.64;100007.25;5425706;32;34570;-73
2023/06/10 05:06:32;;;;;;;;;;;;;;;20.19;73.91;99996.06;5429772;32;34839;-69
2023/06/10 05:09:34;;;;;;;;;;;;;;;20.80;71.86;99990.78;5427738;32;35352;-67
2023/06/10 05:12:38;;;;;;;;;;;;;;;20.35;72.72;99993.81;5414021;32;34547;-71
2023/06/10 05:15:44;;;;;;;;;;;;;;;20.22;72.77;99995.78;5432002;32;34013;-68
2023/06/10 05:18:46;;;;;;;;;;;;;;;20.36;73.38;99997.31;5424272;32;34822;-67
2023/06/10 05:21:48;;;;;;;;;;;;;;;20.39;73.65;100005.03;5426705;32;34820;-67
2023/06/10 05:24:50;;;;;;;;;;;;;;;20.91;69.39;100006.72;5413829;32;35144;-72
2023/06/10 05:27:53;;;;;;;;;;;;;;;21.01;69.74;100001.41;5427112;32;34879;-67
2023/06/10 05:30:55;;;;;;;;;;;;;;;20.92;70.45;100010.22;5398139;32;34382;-72
2023/06/10 05:33:57;;;;;;;;;;;;;;;21.97;66.82;100008.75;5426412;32;34526;-69
2023/06/10 05:36:59;;;;;;;;;;;;;;;22.65;62.73;100009.44;5420121;32;34367;-73
2023/06/10 05:40:01;;;;;;;;;;;;;;;22.21;64.30;100010.97;5424064;32;36008;-72
2023/06/10 05:43:03;;;;;;;;;;;;;;;22.36;63.06;100011.38;5425299;32;34995;-67
2023/06/10 05:46:05;;;;;;;;;;;;;;;23.68;58.69;100004.84;5424763;32;34955;-71
2023/06/10 05:49:07;;;;;;;;;;;;;;;23.64;58.60;100007.00;5429028;32;34897;-67
2023/06/10 05:52:09;;;;;;;;;;;;;;;24.20;56.39;100002.25;5425874;32;34511;-68
2023/06/10 05:55:14;;;;;;;;;;;;;;;24.85;55.20;100006.19;5428526;32;35383;-72
2023/06/10 05:58:16;;;;;;;;;;;;;;;24.56;55.45;100008.41;5425702;32;34768;-72
2023/06/10 06:01:18;;;;;;;;;;;;;;;24.35;55.54;100005.25;5411003;32;34522;-68
2023/06/10 06:04:20;;;;;;;;;;;;;;;24.89;53.92;99998.66;5428839;32;34674;-73
2023/06/10 06:07:22;;;;;;;;;;;;;;;24.70;55.09;100006.97;5425225;32;35078;-74
2023/06/10 06:10:24;;;;;;;;;;;;;;;26.20;50.09;100000.59;5427620;32;34670;-69
2023/06/10 06:13:26;;;;;;;;;;;;;;;23.90;57.83;100011.59;5425669;32;34663;-68
2023/06/10 06:16:28;;;;;;;;;;;;;;;25.71;51.89;100001.59;5413551;32;34754;-69
2023/06/10 06:19:30;;;;;;;;;;;;;;;25.75;51.55;100011.88;5412468;32;34463;-68
2023/06/10 06:22:32;;;;;;;;;;;;;;;24.40;54.86;100016.34;5418925;32;34333;-73
2023/06/10 06:25:38;;;;;;;;;;;;;;;23.59;57.73;100014.63;5420122;32;35388;-69
2023/06/10 06:28:41;;;;;;;;;;;;;;;23.63;57.30;100016.00;5420240;32;34357;-71
2023/06/10 06:31:43;;;;;;;;;;;;;;;22.59;60.59;100023.41;5427684;32;34586;-69
2023/06/10 06:34:45;;;;;;;;;;;;;;;23.43;58.24;100025.16;5426551;32;35556;-67
2023/06/10 06:37:47;;;;;;;;;;;;;;;23.68;57.35;100035.19;5427366;32;34857;-69
2023/06/10 06:40:49;;;;;;;;;;;;;;;24.32;55.75;100022.47;5409606;32;34700;-69
2023/06/10 06:43:51;;;;;;;;;;;;;;;23.67;57.19;100028.13;5406502;32;34642;-73
2023/06/10 06:46:53;;;;;;;;;;;;;;;24.31;56.01;100034.22;5428674;32;34699;-73
2023/06/10 06:49:54;;;;;;;;;;;;;;;24.79;53.50;100025.62;5424893;32;35239;-67
2023/06/10 06:52:56;;;;;;;;;;;;;;;23.88;57.26;100038.56;5428644;32;34556;-69
2023/06/10 06:55:58;;;;;;;;;;;;;;;23.28;58.62;100038.25;5423411;32;34535;-73
2023/06/10 06:59:00;;;;;;;;;;;;;;;24.12;56.73;100037.09;5425389;32;35449;-73
2023/06/10 07:02:03;;;;;;;;;;;;;;;24.89;54.46;100033.59;5429909;32;35044;-73
2023/06/10 07:05:05;;;;;;;;;;;;;;;24.01;57.02;100041.69;5407884;32;34453;-71
2023/06/10 07:08:07;;;;;;;;;;;;;;;24.38;55.39;100032.63;5399270;32;824204;-68
2023/06/10 07:11:09;;;;;;;;;;;;;;;22.71;61.02;100041.00;5424295;32;34445;-68
2023/06/10 07:14:11;;;;;;;;;;;;;;;23.38;59.46;100040.84;5429304;32;35048;-73
2023/06/10 07:17:16;;;;;;;;;;;;;;;23.24;60.17;100035.00;5409171;32;34878;-72
2023/06/10 07:20:20;;;;;;;;;;;;;;;24.27;56.87;100039.06;5427696;32;34545;-73
2023/06/10 07:23:22;;;;;;;;;;;;;;;23.54;59.09;100038.38;5415527;32;34636;-69
2023/06/10 07:26:25;;;;;;;;;;;;;;;23.47;59.67;100042.66;5423742;32;34239;-68
2023/06/10 07:29:27;;;;;;;;;;;;;;;23.48;59.38;100030.94;5429634;32;34826;-68
2023/06/10 07:32:29;;;;;;;;;;;;;;;24.30;57.25;100033.37;5423660;32;35482;-68
2023/06/10 07:35:31;;;;;;;;;;;;;;;25.59;52.58;100017.22;5428597;32;35484;-74
2023/06/10 07:38:33;;;;;;;;;;;;;;;24.56;55.58;100035.25;5422180;32;34450;-69
2023/06/10 07:41:35;;;;;;;;;;;;;;;24.12;56.52;100043.31;5424087;32;34954;-68
2023/06/10 07:44:37;;;;;;;;;;;;;;;23.87;58.10;100041.41;5410825;32;34968;-73
2023/06/10 07:47:39;;;;;;;;;;;;;;;24.75;54.88;100031.53;5422221;32;35865;-68
2023/06/10 07:50:43;;;;;;;;;;;;;;;24.35;55.90;100032.12;5427385;32;34470;-74
2023/06/10 07:53:45;;;;;;;;;;;;;;;24.14;56.79;100043.13;5423732;32;34891;-68
2023/06/10 07:56:48;;;;;;;;;;;;;;;25.10;53.78;100030.53;5421759;32;34896;-74
2023/06/10 07:59:50;;;;;;;;;;;;;;;25.58;52.07;100037.06;5427511;32;34931;-69
2023/06/10 08:02:52;;;;;;;;;;;;;;;25.71;51.84;100039.28;5427501;32;35030;-69
2023/06/10 08:05:54;;;;;;;;;;;;;;;25.72;51.33;100031.03;5435240;32;35519;-71
2023/06/10 08:08:56;;;;;;;;;;;;;;;24.00;56.52;100039.16;5426424;32;34589;-68
2023/06/10 08:11:57;;;;;;;;;;;;;;;25.31;52.57;100038.16;5414743;32;34920;-68
2023/06/10 08:15:00;;;;;;;;;;;;;;;23.84;56.23;100044.41;5411573;32;35995;-68
2023/06/10 08:18:02;;;;;;;;;;;;;;;24.77;54.59;100038.41;5432329;32;35927;-72
2023/06/10 08:21:04;;;;;;;;;;;;;;;25.90;51.16;100025.53;5425560;32;35005;-68
2023/06/10 08:24:06;;;;;;;;;;;;;;;25.56;53.30;100020.22;5416139;32;34329;-67
2023/06/10 08:27:09;;;;;;;;;;;;;;;26.31;50.73;100026.34;5415468;32;34345;-71
2023/06/10 08:30:12;;;;;;;;;;;;;;;26.45;49.80;100027.53;5425404;32;34356;-67
2023/06/10 08:33:15;;;;;;;;;;;;;;;28.65;44.22;100014.59;5429594;32;35144;-71
2023/06/10 08:36:17;;;;;;;;;;;;;;;28.01;44.19;100023.94;5426206;32;35345;-70
2023/06/10 08:39:19;;;;;;;;;;;;;;;26.10;48.76;100020.66;5428021;32;34632;-72
2023/06/10 08:42:40;;;;;;;;;;;;;;;27.06;47.18;100007.19;5423977;32;34737;-68
2023/06/10 08:45:43;;;;;;;;;;;;;;;27.08;46.03;100007.84;5410701;32;36133;-72
2023/06/10 08:48:44;;;;;;;;;;;;;;;26.89;47.00;100014.47;5411087;32;34742;-69
2023/06/10 08:51:48;;;;;;;;;;;;;;;27.82;45.40;100005.53;5411182;32;35106;-69
2023/06/10 08:54:57;;;;;;;;;;;;;;;30.25;39.31;99999.19;5410448;32;34374;-68
2023/06/10 08:58:02;;;;;;;;;;;;;;;28.55;42.75;100002.22;5426135;32;34804;-72
2023/06/10 09:01:04;;;;;;;;;;;;;;;28.77;42.21;99994.19;5400084;32;35608;-68
2023/06/10 09:04:06;;;;;;;;;;;;;;;28.20;43.49;99998.28;5425745;32;36580;-72
2023/06/10 09:07:08;;;;;;;;;;;;;;;29.17;40.86;99986.59;5409351;32;35516;-71
2023/06/10 09:10:10;;;;;;;;;;;;;;;30.80;38.59;99983.94;5410384;32;33840;-73
2023/06/10 09:13:15;;;;;;;;;;;;;;;31.63;35.96;99974.62;5411519;32;35483;-74
2023/06/10 09:16:17;;;;;;;;;;;;;;;29.34;40.33;99974.53;5428629;32;34952;-73
2023/06/10 09:19:21;;;;;;;;;;;;;;;30.36;38.96;99966.12;5415903;32;34446;-75
2023/06/10 09:22:23;;;;;;;;;;;;;;;32.32;34.80;99957.91;5425959;32;35289;-68
2023/06/10 09:25:38;;;;;;;;;;;;;;;29.02;40.27;99965.00;5414996;32;35119;-73
2023/06/10 09:28:42;;;;;;;;;;;;;;;30.29;37.80;99957.09;5423061;32;34576;-69
2023/06/10 09:31:44;;;;;;;;;;;;;;;27.34;44.91;99972.47;5413950;32;36424;-69
2023/06/10 09:34:46;;;;;;;;;;;;;;;29.45;40.61;99954.25;5411326;32;34892;-74
2023/06/10 09:37:49;;;;;;;;;;;;;;;28.28;42.41;99960.41;5427690;32;36029;-68
2023/06/10 09:40:52;;;;;;;;;;;;;;;30.04;38.97;99957.50;5410055;32;35624;-68
2023/06/10 09:43:54;;;;;;;;;;;;;;;28.49;42.40;99959.69;5404833;32;34313;-67
2023/06/10 09:46:58;;;;;;;;;;;;;;;27.86;43.53;99966.38;5412737;32;35051;-72
2023/06/10 09:50:01;;;;;;;;;;;;;;;26.69;46.49;99975.44;5425294;32;34959;-69
2023/06/10 09:53:03;;;;;;;;;;;;;;;25.80;50.10;99974.53;5413118;32;35008;-72
2023/06/10 09:56:05;;;;;;;;;;;;;;;26.14;48.78;99977.03;5424612;32;34956;-68
2023/06/10 09:59:11;;;;;;;;;;;;;;;25.49;51.29;99984.22;5412782;32;35404;-68
2023/06/10 10:02:16;;;;;;;;;;;;;;;26.24;48.44;99974.19;5411537;32;35648;-72
2023/06/10 10:05:22;;;;;;;;;;;;;;;25.60;50.48;99973.16;5426415;32;34940;-67
2023/06/10 10:08:24;;;;;;;;;;;;;;;25.35;51.88;99973.13;5428334;32;35417;-71
2023/06/10 10:11:26;;;;;;;;;;;;;;;25.31;51.59;99974.47;5425064;32;35368;-67
2023/06/10 10:14:29;;;;;;;;;;;;;;;25.29;51.88;99981.84;5429551;32;34349;-72
2023/06/10 10:17:31;;;;;;;;;;;;;;;25.39;51.04;99979.88;5407940;32;35282;-67
2023/06/10 10:20:34;;;;;;;;;;;;;;;26.52;47.85;99973.81;5410385;32;34306;-68
2023/06/10 10:23:40;;;;;;;;;;;;;;;24.99;51.36;99977.00;5414233;32;34868;-72
2023/06/10 10:26:42;;;;;;;;;;;;;;;25.52;50.58;99967.78;5407993;32;34818;-74
2023/06/10 10:29:46;;;;;;;;;;;;;;;27.17;45.67;99958.22;5414574;32;35033;-70
2023/06/10 10:32:48;;;;;;;;;;;;;;;28.63;42.76;99949.06;5410949;32;35835;-68
2023/06/10 10:35:50;;;;;;;;;;;;;;;28.92;41.19;99943.69;5429611;32;34799;-67
2023/06/10 10:38:52;;;;;;;;;;;;;;;27.73;43.70;99953.47;5408997;32;33446;-67
2023/06/10 10:41:55;;;;;;;;;;;;;;;27.58;44.38;99960.66;5398890;32;34725;-68
2023/06/10 10:44:57;;;;;;;;;;;;;;;27.29;43.72;99947.03;5409187;32;35223;-72
2023/06/10 10:47:58;;;;;;;;;;;;;;;27.41;44.23;99945.59;5407781;32;35470;-71
2023/06/10 10:51:01;;;;;;;;;;;;;;;28.47;41.78;99940.13;5401089;32;35227;-72
2023/06/10 10:54:09;;;;;;;;;;;;;;;27.47;43.52;99943.03;5408447;32;34443;-75
2023/06/10 10:57:11;;;;;;;;;;;;;;;28.75;41.18;99934.88;5410980;32;34734;-72
2023/06/10 11:00:14;;;;;;;;;;;;;;;30.04;38.05;99927.72;5412782;32;35644;-71
2023/06/10 11:03:16;;;;;;;;;;;;;;;29.77;38.58;99923.13;5410077;32;35282;-73
2023/06/10 11:06:19;;;;;;;;;;;;;;;31.23;35.78;99920.22;5413050;32;35390;-69
2023/06/10 11:09:28;;;;;;;;;;;;;;;30.80;37.34;99916.94;5424637;32;35322;-72
2023/06/10 11:12:45;;;;;;;;;;;;;;;30.97;35.49;99912.81;5427305;32;34993;-69
2023/06/10 11:15:49;;;;;;;;;;;;;;;33.32;32.22;99897.69;5412078;32;34404;-69
2023/06/10 11:18:53;;;;;;;;;;;;;;;34.86;29.25;99887.84;5426544;32;35020;-70
2023/06/10 11:21:59;;;;;;;;;;;;;;;34.62;30.88;99886.87;5421718;32;34238;-69
2023/06/10 11:25:02;;;;;;;;;;;;;;;33.94;31.37;99894.09;5427260;32;34285;-72
2023/06/10 11:28:03;;;;;;;;;;;;;;;32.05;34.31;99891.88;5427010;32;35465;-69
2023/06/10 11:31:06;;;;;;;;;;;;;;;30.80;36.19;99897.97;5410187;32;37154;-71
2023/06/10 11:34:08;;;;;;;;;;;;;;;29.68;38.80;99906.16;5429031;32;35075;-68
2023/06/10 11:37:10;;;;;;;;;;;;;;;30.41;37.45;99899.44;5424281;32;34404;-70
2023/06/10 11:40:12;;;;;;;;;;;;;;;29.47;39.32;99904.28;5406754;32;35007;-67
2023/06/10 11:43:14;;;;;;;;;;;;;;;28.79;41.23;99900.22;5419964;32;35396;-68
2023/06/10 11:46:16;;;;;;;;;;;;;;;27.68;42.96;99895.63;5420429;32;34743;-68
2023/06/10 11:49:20;;;;;;;;;;;;;;;27.47;44.21;99894.44;5427964;32;34389;-69
2023/06/10 11:52:37;;;;;;;;;;;;;;;27.02;44.66;99894.41;5415274;32;35024;-72
2023/06/10 11:55:43;;;;;;;;;;;;;;;26.92;45.94;99902.69;5428087;32;34246;-72
2023/06/10 11:58:45;;;;;;;;;;;;;;;28.17;42.84;99898.72;5407550;32;34733;-73
2023/06/10 12:01:47;;;;;;;;;;;;;;;29.42;40.49;99893.19;5423769;32;34939;-74
2023/06/10 12:04:49;;;;;;;;;;;;;;;30.32;38.72;99886.22;5413104;32;34860;-72
2023/06/10 12:08:07;;;;;;;;;;;;;;;29.71;39.45;99886.00;5409192;32;36117;-72
2023/06/10 12:11:09;;;;;;;;;;;;;;;28.98;40.90;99880.69;5410388;32;35417;-73
2023/06/10 12:14:11;;;;;;;;;;;;;;;29.03;41.56;99877.41;5424688;32;34281;-68
2023/06/10 12:17:13;;;;;;;;;;;;;;;28.03;43.19;99877.94;5409750;32;35256;-69
2023/06/10 12:20:29;;;;;;;;;;;;;;;28.03;42.38;99870.69;5410840;32;34429;-74
2023/06/10 12:23:31;;;;;;;;;;;;;;;29.06;39.55;99864.34;5406546;32;34719;-73
2023/06/10 12:26:46;;;;;;;;;;;;;;;27.90;42.32;99859.66;5416804;32;34994;-69
2023/06/10 12:29:53;;;;;;;;;;;;;;;28.15;40.25;99854.84;5411584;32;34844;-69
2023/06/10 12:32:55;;;;;;;;;;;;;;;29.52;38.05;99849.59;5425433;32;35218;-73
2023/06/10 12:36:04;;;;;;;;;;;;;;;28.52;39.96;99851.19;5410206;32;34355;-70
2023/06/10 12:39:06;;;;;;;;;;;;;;;27.89;41.44;99840.97;5415437;32;35020;-69
2023/06/10 12:42:11;;;;;;;;;;;;;;;28.22;40.51;99836.88;5395057;32;34110;-68
2023/06/10 12:45:15;;;;;;;;;;;;;;;28.82;38.63;99826.78;5405709;32;35048;-69
2023/06/10 12:48:17;;;;;;;;;;;;;;;27.90;39.60;99821.88;5413418;32;34297;-73
2023/06/10 12:51:19;;;;;;;;;;;;;;;27.89;40.37;99835.56;5426436;32;34350;-68
2023/06/10 12:54:21;;;;;;;;;;;;;;;27.13;42.48;99835.53;5428510;32;34351;-74
2023/06/10 12:57:24;;;;;;;;;;;;;;;28.34;40.05;99818.34;5427839;32;34513;-74
2023/06/10 13:00:28;;;;;;;;;;;;;;;27.35;42.91;99820.34;5409746;32;35540;-71
2023/06/10 13:03:30;;;;;;;;;;;;;;;27.93;42.92;99816.06;5428847;32;34343;-70
2023/06/10 13:06:36;;;;;;;;;;;;;;;27.19;45.16;99836.66;5424728;32;35289;-73
2023/06/10 13:09:38;;;;;;;;;;;;;;;27.72;43.44;99819.53;5412391;32;34758;-73
2023/06/10 13:12:40;;;;;;;;;;;;;;;27.53;44.28;99820.84;5411011;32;33983;-68
2023/06/10 13:15:49;;;;;;;;;;;;;;;26.35;46.64;99831.06;5400346;32;34820;-68
2023/06/10 13:18:53;;;;;;;;;;;;;;;27.05;45.40;99810.44;5428445;32;33146;-71
2023/06/10 13:21:55;;;;;;;;;;;;;;;26.97;44.94;99819.41;5425238;32;34895;-72
2023/06/10 13:24:57;;;;;;;;;;;;;;;27.25;44.40;99812.50;5431700;32;34343;-72
2023/06/10 13:27:59;;;;;;;;;;;;;;;26.77;45.70;99816.34;5424650;32;35196;-72
2023/06/10 13:31:01;;;;;;;;;;;;;;;26.68;45.90;99823.66;5428856;32;34709;-68
2023/06/10 13:34:03;;;;;;;;;;;;;;;26.73;46.48;99832.06;5426024;32;34521;-74
2023/06/10 13:37:05;;;;;;;;;;;;;;;26.79;46.65;99819.69;5426027;32;34823;-69
2023/06/10 13:40:07;;;;;;;;;;;;;;;27.25;45.07;99814.38;5427787;32;35131;-73
2023/06/10 13:43:10;;;;;;;;;;;;;;;26.57;46.52;99825.91;5421544;32;34453;-69
2023/06/10 13:46:12;;;;;;;;;;;;;;;27.28;44.68;99819.38;5416872;32;34413;-73
2023/06/10 13:49:14;;;;;;;;;;;;;;;26.89;45.44;99825.72;5411611;32;34986;-67
2023/06/10 13:52:16;;;;;;;;;;;;;;;27.06;45.06;99828.34;5427561;32;34719;-68
2023/06/10 13:55:20;;;;;;;;;;;;;;;27.86;43.29;99817.00;5427892;32;34696;-69
2023/06/10 13:58:22;;;;;;;;;;;;;;;27.47;43.82;99826.13;5425598;32;35264;-67
2023/06/10 14:01:24;;;;;;;;;;;;;;;27.48;44.97;99817.84;5428167;32;34470;-68
2023/06/10 14:04:26;;;;;;;;;;;;;;;26.91;46.51;99831.75;5411117;32;35097;-68
2023/06/10 14:07:28;;;;;;;;;;;;;;;27.12;46.42;99833.03;5413732;32;34895;-70
2023/06/10 14:10:30;;;;;;;;;;;;;;;26.73;47.37;99836.62;5411004;32;34224;-68
2023/06/10 14:13:33;;;;;;;;;;;;;;;26.12;47.93;99833.66;5428990;32;35426;-72
2023/06/10 14:16:35;;;;;;;;;;;;;;;27.52;43.90;99821.03;5426322;32;34519;-72
2023/06/10 14:19:37;;;;;;;;;;;;;;;26.19;46.75;99825.72;5426168;32;34639;-72
2023/06/10 14:22:40;;;;;;;;;;;;;;;26.30;46.14;99822.66;5427354;32;34956;-72
2023/06/10 14:25:42;;;;;;;;;;;;;;;26.32;46.06;99834.06;5427471;32;35369;-72
2023/06/10 14:28:44;;;;;;;;;;;;;;;25.72;47.90;99828.34;5428156;32;35176;-72
2023/06/10 14:31:46;;;;;;;;;;;;;;;26.22;47.00;99819.16;5425322;32;34805;-72
2023/06/10 14:34:48;;;;;;;;;;;;;;;25.88;48.14;99818.41;5429385;32;34796;-73
2023/06/10 14:37:50;;;;;;;;;;;;;;;25.99;48.39;99819.91;5427277;32;34656;-73
2023/06/10 14:40:52;;;;;;;;;;;;;;;26.70;46.93;99810.00;5413553;32;34307;-72
2023/06/10 14:43:54;;;;;;;;;;;;;;;27.15;46.33;99808.38;5426793;32;35030;-70
2023/06/10 14:46:56;;;;;;;;;;;;;;;26.29;48.42;99814.75;5425843;32;34493;-71
2023/06/10 14:49:58;;;;;;;;;;;;;;;26.21;47.94;99823.69;5428844;32;34474;-68
2023/06/10 14:53:00;;;;;;;;;;;;;;;25.85;48.74;99815.22;5420807;32;35175;-72
2023/06/10 14:56:02;;;;;;;;;;;;;;;25.92;49.23;99813.53;5427769;32;35065;-68
2023/06/10 14:59:04;;;;;;;;;;;;;;;25.32;51.78;99817.47;5410644;32;35034;-72
2023/06/10 15:02:06;;;;;;;;;;;;;;;25.31;52.68;99814.91;5424438;32;34977;-73
2023/06/10 15:05:08;;;;;;;;;;;;;;;25.73;52.72;99828.19;5427785;32;34768;-72
2023/06/10 15:08:11;;;;;;;;;;;;;;;25.46;53.53;99818.63;5423030;32;34181;-68
2023/06/10 15:11:13;;;;;;;;;;;;;;;25.80;53.57;99823.81;5427107;32;34670;-69
2023/06/10 15:14:15;;;;;;;;;;;;;;;25.32;55.24;99835.44;5423213;32;34340;-68
2023/06/10 15:17:17;;;;;;;;;;;;;;;25.51;56.27;99831.56;5426577;32;36660;-68
2023/06/10 15:20:19;;;;;;;;;;;;;;;25.73;54.44;99841.66;5411062;32;34582;-68
2023/06/10 15:23:21;;;;;;;;;;;;;;;26.17;53.68;99841.22;5405493;32;35090;-72
2023/06/10 15:26:24;;;;;;;;;;;;;;;26.52;53.37;99844.47;5405799;32;34405;-68
2023/06/10 15:29:26;;;;;;;;;;;;;;;24.89;60.84;99842.75;5422417;32;35113;-72
2023/06/10 15:32:30;;;;;;;;;;;;;;;24.39;66.40;99845.47;5411421;32;35022;-67
2023/06/10 15:35:32;;;;;;;;;;;;;;;23.50;69.57;99850.06;5426085;32;34977;-71
2023/06/10 15:38:34;;;;;;;;;;;;;;;24.37;63.40;99852.84;5414140;32;35322;-71
2023/06/10 15:41:36;;;;;;;;;;;;;;;23.84;63.01;99861.94;5408742;32;35385;-67
2023/06/10 15:44:38;;;;;;;;;;;;;;;23.52;62.90;99858.81;5416371;32;34989;-69
2023/06/10 15:47:42;;;;;;;;;;;;;;;23.32;63.58;99862.69;5413470;32;34353;-68